Time;durP1;ratioP1;P1;durP2;ratioP2;P2;SDS_P1;SDS_P2;PMS_P1;PMS_P2;Temp;Humidity;BMP_temperature;BMP_pressure;BME280_temperature;BME280_humidity;BME280_pressure;Samples;Min_cycle;Max_cycle;Signal;HPM_P1;HPM_P2
2021/04/11 00:01:52;;;;;;;5.15;1.42;;;18.00;43.90;;;;;;4967492;29;20165;-76
2021/04/11 00:04:18;;;;;;;4.32;1.27;;;18.00;43.90;;;;;;4967030;29;20192;-76
2021/04/11 00:06:44;;;;;;;5.35;1.00;;;18.00;44.00;;;;;;4968354;29;20169;-77
2021/04/11 00:09:10;;;;;;;1.60;0.93;;;17.90;43.90;;;;;;4968317;29;20212;-77
2021/04/11 00:11:37;;;;;;;4.85;1.25;;;17.90;43.90;;;;;;4968432;28;20162;-76
2021/04/11 00:14:09;;;;;;;2.92;1.10;;;18.00;44.00;;;;;;4968023;29;20161;-76
2021/04/11 00:16:38;;;;;;;3.13;1.33;;;18.00;43.90;;;;;;4967058;29;20197;-77
2021/04/11 00:19:05;;;;;;;5.53;1.30;;;18.00;43.70;;;;;;4968145;28;20189;-76
2021/04/11 00:21:32;;;;;;;1.55;0.90;;;18.00;43.70;;;;;;4951327;29;20192;-76
2021/04/11 00:24:06;;;;;;;7.18;1.20;;;18.00;43.90;;;;;;4968245;28;20198;-76
2021/04/11 00:26:41;;;;;;;4.65;1.38;;;18.00;43.90;;;;;;4968016;29;20180;-76
2021/04/11 00:29:16;;;;;;;4.05;1.17;;;18.00;43.70;;;;;;4968195;28;20169;-76
2021/04/11 00:31:42;;;;;;;3.55;1.27;;;18.00;43.80;;;;;;4968211;29;20221;-76
2021/04/11 00:34:07;;;;;;;7.97;1.45;;;18.00;43.90;;;;;;4967885;28;20172;-76
2021/04/11 00:36:33;;;;;;;3.63;1.30;;;17.90;43.90;;;;;;4967411;29;20198;-76
2021/04/11 00:38:59;;;;;;;2.42;1.10;;;17.90;44.00;;;;;;4968170;29;20172;-76
2021/04/11 00:41:39;;;;;;;3.17;1.20;;;17.90;44.00;;;;;;4967745;29;20162;-76
2021/04/11 00:44:05;;;;;;;2.65;1.52;;;17.90;44.00;;;;;;4967060;29;20177;-76
2021/04/11 00:46:47;;;;;;;6.63;1.23;;;17.90;44.10;;;;;;4953090;29;20198;-76
2021/04/11 00:49:52;;;;;;;4.63;1.30;;;17.90;43.90;;;;;;4971298;28;20157;-76
2021/04/11 00:52:26;;;;;;;2.70;0.90;;;17.90;43.90;;;;;;4969722;29;20173;-76
2021/04/11 00:54:54;;;;;;;2.78;1.00;;;17.90;44.10;;;;;;4970288;29;20162;-76
2021/04/11 00:57:19;;;;;;;2.67;1.17;;;17.90;43.80;;;;;;4981950;28;20232;-76
2021/04/11 00:59:49;;;;;;;2.72;1.02;;;17.90;43.90;;;;;;4956717;28;20209;-76
2021/04/11 01:02:15;;;;;;;4.47;1.30;;;17.90;43.80;;;;;;4973377;28;20208;-77
2021/04/11 01:04:41;;;;;;;3.35;1.30;;;17.90;43.80;;;;;;4972973;28;20207;-76
2021/04/11 01:07:11;;;;;;;4.32;1.00;;;17.90;43.90;;;;;;4973556;28;20184;-76
2021/04/11 01:09:44;;;;;;;3.22;1.25;;;17.90;44.00;;;;;;4957216;28;20184;-76
2021/04/11 01:12:13;;;;;;;3.55;1.05;;;17.90;43.80;;;;;;4957679;28;20153;-76
2021/04/11 01:14:39;;;;;;;2.50;1.10;;;17.90;43.90;;;;;;4990431;28;20628;-76
2021/04/11 01:17:12;;;;;;;5.63;1.33;;;17.90;44.60;;;;;;4956474;28;20208;-76
2021/04/11 01:19:39;;;;;;;4.97;1.40;;;17.90;43.90;;;;;;4972921;28;20240;-76
2021/04/11 01:22:17;;;;;;;3.72;1.48;;;17.90;43.70;;;;;;4956819;28;20157;-76
2021/04/11 01:24:58;;;;;;;2.33;1.20;;;17.90;43.80;;;;;;4958283;28;20176;-76
2021/04/11 01:27:34;;;;;;;3.45;1.20;;;17.90;43.80;;;;;;4974596;28;20179;-76
2021/04/11 01:30:13;;;;;;;3.03;1.08;;;17.90;43.80;;;;;;4972777;28;20161;-76
2021/04/11 01:32:41;;;;;;;3.25;1.35;;;17.90;43.70;;;;;;4973295;28;20165;-77
2021/04/11 01:35:23;;;;;;;3.40;1.30;;;17.90;43.80;;;;;;4973218;28;20157;-76
2021/04/11 01:37:51;;;;;;;2.97;1.10;;;17.90;43.90;;;;;;4972290;28;20175;-76
2021/04/11 01:40:48;;;;;;;2.50;1.10;;;17.90;44.00;;;;;;4956419;28;20157;-76
2021/04/11 01:43:14;;;;;;;3.10;1.10;;;17.90;44.00;;;;;;4930607;29;20666;-76
2021/04/11 01:45:40;;;;;;;3.70;1.17;;;17.90;44.10;;;;;;4930895;29;20185;-76
2021/04/11 01:48:07;;;;;;;2.92;0.95;;;17.90;44.00;;;;;;4929587;29;20258;-78
2021/04/11 01:50:37;;;;;;;3.25;1.00;;;17.90;44.40;;;;;;4930073;29;20195;-76
2021/04/11 01:53:03;;;;;;;5.82;1.38;;;17.90;43.90;;;;;;4930308;29;20171;-76
2021/04/11 01:55:32;;;;;;;4.05;1.08;;;17.90;43.90;;;;;;4930331;29;20172;-76
2021/04/11 01:58:04;;;;;;;3.75;1.25;;;17.90;43.90;;;;;;4929739;29;20219;-76
2021/04/11 02:00:44;;;;;;;2.80;1.00;;;17.90;43.90;;;;;;4930222;29;20194;-76
2021/04/11 02:03:13;;;;;;;3.22;1.17;;;17.90;44.00;;;;;;4930343;29;20171;-76
2021/04/11 02:05:43;;;;;;;5.78;1.20;;;17.90;44.00;;;;;;4929282;29;20710;-76
2021/04/11 02:08:09;;;;;;;5.88;1.20;;;17.90;43.90;;;;;;4930032;29;20273;-76
2021/04/11 02:10:38;;;;;;;4.05;1.10;;;17.90;43.90;;;;;;4929487;29;20224;-76
2021/04/11 02:13:03;;;;;;;3.13;1.17;;;17.90;43.80;;;;;;4929529;29;20190;-76
2021/04/11 02:15:30;;;;;;;3.38;1.23;;;17.90;43.70;;;;;;4929695;29;20167;-76
2021/04/11 02:18:04;;;;;;;2.20;1.00;;;17.90;43.80;;;;;;4929616;29;20250;-76
2021/04/11 02:20:30;;;;;;;3.05;1.33;;;17.90;43.70;;;;;;4973967;28;20187;-76
2021/04/11 02:22:56;;;;;;;3.70;1.30;;;17.90;43.70;;;;;;4955538;28;20624;-76
2021/04/11 02:25:30;;;;;;;3.40;1.52;;;17.90;43.70;;;;;;4972313;28;20232;-76
2021/04/11 02:27:55;;;;;;;1.55;0.98;;;17.90;43.80;;;;;;4955940;28;20172;-76
2021/04/11 02:30:24;;;;;;;2.65;0.98;;;17.90;43.70;;;;;;4971656;28;20153;-76
2021/04/11 02:32:52;;;;;;;5.00;1.30;;;17.90;44.60;;;;;;4971732;28;20212;-76
2021/04/11 02:35:23;;;;;;;3.78;1.10;;;17.90;43.90;;;;;;4955483;28;20195;-76
2021/04/11 02:37:58;;;;;;;3.85;1.10;;;17.90;43.90;;;;;;4956250;28;20252;-76
2021/04/11 02:40:37;;;;;;;2.50;0.90;;;17.80;44.00;;;;;;4972241;28;20157;-76
2021/04/11 02:43:03;;;;;;;4.68;1.50;;;17.80;44.00;;;;;;4971729;28;20569;-76
2021/04/11 02:45:41;;;;;;;2.65;1.13;;;17.80;44.00;;;;;;4988589;28;20169;-76
2021/04/11 02:48:12;;;;;;;4.13;0.93;;;17.80;43.90;;;;;;4972048;28;20157;-76
2021/04/11 02:50:40;;;;;;;1.67;1.15;;;17.80;44.00;;;;;;4971613;28;20160;-76
2021/04/11 02:53:22;;;;;;;2.47;1.13;;;17.90;43.80;;;;;;4988166;28;20165;-76
2021/04/11 02:55:49;;;;;;;2.30;1.05;;;17.90;43.70;;;;;;4971372;28;20204;-76
2021/04/11 02:58:18;;;;;;;2.88;1.20;;;17.90;43.70;;;;;;4971121;28;20272;-76
2021/04/11 03:01:05;;;;;;;2.97;1.27;;;17.90;43.80;;;;;;4970944;28;20223;-76
2021/04/11 03:03:37;;;;;;;2.80;1.00;;;17.80;44.00;;;;;;4988237;28;20161;-76
2021/04/11 03:06:16;;;;;;;3.10;1.13;;;17.80;43.90;;;;;;4970747;28;20161;-76
2021/04/11 03:08:47;;;;;;;1.85;1.10;;;17.80;44.00;;;;;;4970832;28;20224;-76
2021/04/11 03:11:22;;;;;;;1.90;1.15;;;17.80;44.10;;;;;;4971113;28;20161;-77
2021/04/11 03:13:47;;;;;;;2.30;1.10;;;17.80;44.00;;;;;;4988255;28;20156;-76
2021/04/11 03:16:14;;;;;;;3.03;0.93;;;17.80;43.90;;;;;;4955417;28;20291;-76
2021/04/11 03:18:43;;;;;;;3.05;0.98;;;17.80;43.90;;;;;;4988218;28;20163;-76
2021/04/11 03:21:08;;;;;;;4.78;1.13;;;17.80;44.00;;;;;;4971370;28;20499;-76
2021/04/11 03:23:34;;;;;;;2.03;1.10;;;17.80;43.90;;;;;;4955316;28;20168;-76
2021/04/11 03:26:25;;;;;;;5.18;1.27;;;17.80;43.90;;;;;;4939110;28;20215;-76
2021/04/11 03:29:00;;;;;;;3.47;1.10;;;17.80;43.90;;;;;;4940940;28;20161;-76
2021/04/11 03:31:32;;;;;;;3.03;1.02;;;17.80;44.00;;;;;;4939516;28;20192;-76
2021/04/11 03:34:00;;;;;;;4.65;1.20;;;17.80;43.90;;;;;;4954649;28;20193;-76
2021/04/11 03:36:26;;;;;;;3.40;1.02;;;17.80;44.00;;;;;;4939336;28;20247;-76
2021/04/11 03:38:52;;;;;;;2.67;1.00;;;17.80;44.00;;;;;;4970896;28;20193;-76
2021/04/11 03:41:18;;;;;;;1.80;1.00;;;17.80;44.10;;;;;;4954131;28;20161;-76
2021/04/11 03:43:49;;;;;;;4.30;0.90;;;17.80;44.10;;;;;;4954514;28;20180;-76
2021/04/11 03:46:34;;;;;;;3.08;0.90;;;17.80;44.10;;;;;;4954707;28;20164;-76
2021/04/11 03:49:11;;;;;;;3.38;1.08;;;17.80;44.10;;;;;;4955157;28;20161;-76
2021/04/11 03:51:38;;;;;;;3.65;1.10;;;17.80;43.90;;;;;;4970474;28;20164;-76
2021/04/11 03:54:15;;;;;;;4.13;1.00;;;17.80;44.00;;;;;;4971068;28;20161;-76
2021/04/11 03:56:43;;;;;;;1.63;0.85;;;17.80;43.90;;;;;;4967355;29;20236;-76
2021/04/11 03:59:12;;;;;;;2.08;0.82;;;17.80;44.00;;;;;;4967205;29;20179;-76
2021/04/11 04:01:49;;;;;;;3.50;1.00;;;17.80;44.10;;;;;;4967745;29;20157;-76
2021/04/11 04:04:23;;;;;;;3.75;1.00;;;17.80;44.00;;;;;;4951912;29;20161;-76
2021/04/11 04:06:58;;;;;;;5.30;1.00;;;17.80;44.10;;;;;;4950909;29;20169;-76
2021/04/11 04:09:25;;;;;;;2.80;1.30;;;17.80;44.10;;;;;;4967133;29;20183;-76
2021/04/11 04:12:13;;;;;;;3.17;1.45;;;17.80;44.10;;;;;;4967977;29;20157;-76
2021/04/11 04:14:59;;;;;;;2.03;0.90;;;17.80;44.00;;;;;;4967533;29;20189;-76
2021/04/11 04:17:37;;;;;;;2.55;1.00;;;17.70;44.00;;;;;;4968312;29;20193;-76
2021/04/11 04:20:30;;;;;;;3.15;1.20;;;17.70;44.20;;;;;;4968108;28;20161;-76
2021/04/11 04:23:05;;;;;;;3.50;1.05;;;17.70;44.10;;;;;;4971312;28;20157;-75
2021/04/11 04:25:56;;;;;;;2.80;1.13;;;17.80;44.00;;;;;;4971906;28;20213;-76
2021/04/11 04:28:49;;;;;;;2.20;0.85;;;17.80;44.00;;;;;;4972222;29;20153;-76
2021/04/11 04:31:19;;;;;;;2.90;1.08;;;17.80;44.00;;;;;;4970132;29;20154;-76
2021/04/11 04:33:58;;;;;;;3.03;0.95;;;17.80;44.00;;;;;;4970777;29;20185;-76
2021/04/11 04:36:38;;;;;;;2.13;1.02;;;17.80;44.00;;;;;;4970557;29;20187;-76
2021/04/11 04:39:26;;;;;;;3.33;1.13;;;17.80;44.00;;;;;;4971746;29;20236;-75
2021/04/11 04:42:12;;;;;;;2.65;1.08;;;17.80;43.90;;;;;;4970452;29;20160;-76
2021/04/11 04:44:58;;;;;;;2.20;1.05;;;17.80;43.80;;;;;;4971498;29;20241;-76
2021/04/11 04:47:41;;;;;;;5.22;1.10;;;17.80;43.90;;;;;;4970003;29;20216;-76
2021/04/11 04:50:18;;;;;;;3.28;1.30;;;17.80;43.90;;;;;;4970189;29;20351;-76
2021/04/11 04:52:57;;;;;;;3.13;1.08;;;17.80;43.90;;;;;;4953701;29;20161;-76
2021/04/11 04:55:25;;;;;;;1.88;0.90;;;17.80;43.90;;;;;;4939876;29;20227;-76
2021/04/11 04:57:58;;;;;;;2.20;0.82;;;17.80;43.90;;;;;;4937008;29;20236;-76
2021/04/11 05:00:24;;;;;;;1.63;0.88;;;17.80;44.00;;;;;;4935518;29;20166;-76
2021/04/11 05:03:13;;;;;;;1.20;0.85;;;17.80;44.00;;;;;;4952156;29;20177;-76
2021/04/11 05:06:12;;;;;;;2.55;1.10;;;17.80;43.90;;;;;;4952232;29;20159;-76
2021/04/11 05:08:53;;;;;;;2.28;1.15;;;17.80;43.90;;;;;;4900305;29;20196;-76
2021/04/11 05:11:39;;;;;;;3.45;1.45;;;17.80;43.90;;;;;;4895940;29;20258;-76
2021/04/11 05:14:14;;;;;;;2.85;0.95;;;17.80;44.00;;;;;;4897554;29;20207;-76
2021/04/11 05:17:01;;;;;;;3.97;1.23;;;17.80;43.90;;;;;;4896163;29;20194;-76
2021/04/11 05:19:46;;;;;;;1.58;1.02;;;17.80;43.90;;;;;;4897280;29;20203;-76
2021/04/11 05:22:23;;;;;;;2.53;1.02;;;17.80;43.70;;;;;;4897329;29;20167;-76
2021/04/11 05:24:52;;;;;;;2.35;0.90;;;17.80;43.70;;;;;;4897280;29;20283;-76
2021/04/11 05:27:23;;;;;;;3.70;1.02;;;17.80;43.70;;;;;;4881364;29;20264;-76
2021/04/11 05:30:03;;;;;;;4.47;1.10;;;17.90;43.70;;;;;;4911733;29;20167;-76
2021/04/11 05:32:29;;;;;;;3.15;0.90;;;17.90;43.70;;;;;;4894682;29;20186;-76
2021/04/11 05:34:56;;;;;;;3.22;1.10;;;17.90;43.70;;;;;;4880243;29;20893;-77
2021/04/11 05:37:32;;;;;;;2.45;0.88;;;17.90;43.60;;;;;;4895812;29;20651;-76
2021/04/11 05:40:13;;;;;;;1.48;1.00;;;17.90;43.60;;;;;;4911265;29;20732;-77
2021/04/11 05:42:47;;;;;;;4.55;1.20;;;17.90;43.60;;;;;;4910819;29;20175;-77
2021/04/11 05:45:17;;;;;;;3.55;1.10;;;17.90;43.60;;;;;;4936213;29;20660;-77
2021/04/11 05:48:20;;;;;;;4.18;1.10;;;17.90;44.30;;;;;;4969744;29;20165;-76
2021/04/11 05:51:04;;;;;;;2.40;0.95;;;17.90;43.70;;;;;;4955171;28;20170;-76
2021/04/11 05:53:37;;;;;;;2.33;1.00;;;17.90;43.80;;;;;;4935419;29;20189;-77
2021/04/11 05:56:10;;;;;;;3.92;1.00;;;17.90;43.70;;;;;;4966015;29;20224;-78
2021/04/11 05:58:42;;;;;;;2.33;1.00;;;17.90;43.70;;;;;;4919575;29;20194;-78
2021/04/11 06:01:16;;;;;;;2.30;1.20;;;18.00;43.50;;;;;;4939912;29;20193;-77
2021/04/11 06:04:03;;;;;;;2.75;1.02;;;18.00;43.50;;;;;;4934031;29;20591;-77
2021/04/11 06:06:32;;;;;;;2.63;0.93;;;18.00;43.50;;;;;;4967221;29;20192;-77
2021/04/11 06:09:43;;;;;;;1.45;0.70;;;18.00;43.50;;;;;;4968896;29;20188;-77
2021/04/11 06:12:28;;;;;;;0.82;0.70;;;18.00;43.40;;;;;;4968070;29;20188;-77
2021/04/11 06:15:10;;;;;;;2.08;1.00;;;18.00;43.40;;;;;;4969060;29;20177;-77
2021/04/11 06:17:36;;;;;;;3.88;1.00;;;18.10;43.20;;;;;;4968979;29;20201;-77
2021/04/11 06:20:05;;;;;;;2.42;0.88;;;18.10;43.20;;;;;;4969053;29;20161;-77
2021/04/11 06:22:34;;;;;;;1.75;1.02;;;18.10;43.20;;;;;;4969715;29;20229;-77
2021/04/11 06:25:11;;;;;;;1.95;0.95;;;18.20;43.10;;;;;;4952154;29;20162;-77
2021/04/11 06:27:40;;;;;;;1.98;0.90;;;18.20;43.10;;;;;;4969167;29;20174;-77
2021/04/11 06:30:23;;;;;;;2.80;0.93;;;18.10;43.00;;;;;;4969834;29;20219;-78
2021/04/11 06:33:08;;;;;;;2.25;1.10;;;18.10;43.10;;;;;;4969013;29;20173;-77
2021/04/11 06:35:56;;;;;;;5.18;0.90;;;18.20;43.10;;;;;;4969436;29;20177;-77
2021/04/11 06:38:25;;;;;;;3.03;0.95;;;18.10;43.20;;;;;;4968231;29;20196;-77
2021/04/11 06:41:06;;;;;;;2.30;1.20;;;18.20;43.00;;;;;;4967133;29;20213;-77
2021/04/11 06:43:36;;;;;;;3.28;1.15;;;18.20;43.00;;;;;;4968687;28;20149;-76
2021/04/11 06:46:34;;;;;;;1.45;0.90;;;18.20;43.00;;;;;;4969711;28;20197;-76
2021/04/11 06:49:22;;;;;;;2.10;1.00;;;18.20;42.80;;;;;;4929183;29;20567;-77
2021/04/11 06:52:07;;;;;;;2.28;0.98;;;18.20;43.00;;;;;;4914571;29;20194;-77
2021/04/11 06:54:53;;;;;;;4.40;1.10;;;18.20;42.90;;;;;;4928161;29;20190;-77
2021/04/11 06:57:25;;;;;;;4.43;1.15;;;18.20;42.90;;;;;;4917793;29;20230;-76
2021/04/11 07:00:22;;;;;;;3.22;1.10;;;18.10;42.80;;;;;;4893513;29;20196;-77
2021/04/11 07:03:18;;;;;;;2.20;0.85;;;18.20;42.90;;;;;;4909900;29;20171;-77
2021/04/11 07:06:05;;;;;;;1.90;1.00;;;18.20;42.90;;;;;;4896929;29;20187;-77
2021/04/11 07:08:34;;;;;;;2.63;0.82;;;18.20;43.10;;;;;;4909500;29;20171;-76
2021/04/11 07:11:34;;;;;;;3.60;1.10;;;18.30;42.90;;;;;;4894308;29;20667;-77
2021/04/11 07:14:30;;;;;;;2.38;0.80;;;18.30;42.90;;;;;;4895223;29;20202;-77
2021/04/11 07:17:16;;;;;;;4.75;1.02;;;18.30;42.90;;;;;;4893536;29;20206;-76
2021/04/11 07:19:54;;;;;;;3.35;1.20;;;18.30;42.70;;;;;;4909649;29;20193;-77
2021/04/11 07:22:57;;;;;;;4.38;1.20;;;18.40;42.80;;;;;;4909548;29;20186;-77
2021/04/11 07:25:42;;;;;;;4.00;1.10;;;18.30;42.80;;;;;;4921289;29;20196;-77
2021/04/11 07:28:31;;;;;;;4.32;1.30;;;18.40;42.80;;;;;;4949813;29;20177;-76
2021/04/11 07:31:08;;;;;;;6.65;1.80;;;18.40;42.80;;;;;;4933158;29;20170;-76
2021/04/11 07:33:56;;;;;;;9.02;1.15;;;18.40;43.00;;;;;;4947358;29;20168;-76
2021/04/11 07:36:25;;;;;;;8.23;1.30;;;18.40;42.80;;;;;;4948415;29;20226;-77
2021/04/11 07:39:09;;;;;;;8.65;1.60;;;18.40;42.70;;;;;;4947738;29;20158;-78
2021/04/11 07:42:08;;;;;;;5.05;1.23;;;18.40;42.80;;;;;;4948403;29;20596;-78
2021/04/11 07:45:09;;;;;;;4.45;1.13;;;18.40;42.80;;;;;;4948267;29;20178;-76
2021/04/11 07:47:54;;;;;;;4.55;1.10;;;18.40;43.00;;;;;;4947649;29;20161;-77
2021/04/11 07:50:57;;;;;;;5.95;1.08;;;18.50;42.60;;;;;;4947629;29;20158;-77
2021/04/11 07:53:47;;;;;;;6.63;1.05;;;18.50;42.60;;;;;;4948688;29;20233;-77
2021/04/11 07:56:34;;;;;;;8.73;1.27;;;18.50;42.60;;;;;;4948109;28;20269;-77
2021/04/11 07:59:20;;;;;;;10.93;2.03;;;18.50;42.70;;;;;;4985886;28;20199;-78
2021/04/11 08:02:10;;;;;;;7.78;1.40;;;18.50;42.90;;;;;;4969149;28;20165;-78
2021/04/11 08:04:52;;;;;;;11.10;1.58;;;18.50;42.70;;;;;;4987120;28;20156;-77
2021/04/11 08:07:22;;;;;;;10.35;1.60;;;18.50;42.40;;;;;;4954941;28;20172;-77
2021/04/11 08:09:51;;;;;;;4.35;1.00;;;18.50;42.30;;;;;;4970013;28;20160;-77
2021/04/11 08:12:50;;;;;;;15.65;2.22;;;18.50;42.60;;;;;;4969906;28;20200;-77
2021/04/11 08:15:22;;;;;;;13.50;1.50;;;18.40;43.00;;;;;;4987176;28;20157;-77
2021/04/11 08:18:03;;;;;;;6.57;1.35;;;18.40;42.80;;;;;;4971709;28;20193;-77
2021/04/11 08:20:43;;;;;;;14.88;1.20;;;18.40;43.00;;;;;;4988004;28;20672;-77
2021/04/11 08:23:37;;;;;;;13.57;2.03;;;18.40;42.90;;;;;;4987533;28;20165;-78
2021/04/11 08:26:44;;;;;;;12.23;1.50;;;18.50;43.00;;;;;;4987098;28;20715;-77
2021/04/11 08:29:30;;;;;;;10.43;1.48;;;18.50;42.80;;;;;;4969737;28;20168;-77
2021/04/11 08:32:11;;;;;;;9.75;1.25;;;18.50;42.90;;;;;;4969763;28;20163;-77
2021/04/11 08:34:58;;;;;;;7.50;1.35;;;18.50;42.80;;;;;;4987130;28;20520;-78
2021/04/11 08:37:43;;;;;;;13.85;1.52;;;18.60;42.70;;;;;;4969613;28;20192;-78
2021/04/11 08:40:23;;;;;;;7.05;1.23;;;18.60;42.60;;;;;;4986768;28;20169;-77
2021/04/11 08:43:13;;;;;;;13.40;1.80;;;18.60;42.70;;;;;;4955169;28;20167;-77
2021/04/11 08:46:08;;;;;;;8.40;1.50;;;18.60;42.90;;;;;;4970949;28;20157;-77
2021/04/11 08:49:13;;;;;;;13.07;1.58;;;18.50;43.10;;;;;;4970943;28;20513;-78
2021/04/11 08:52:01;;;;;;;12.85;1.42;;;18.50;43.20;;;;;;4889439;29;20355;-77
2021/04/11 08:55:04;;;;;;;15.30;1.67;;;18.50;43.20;;;;;;4877023;29;20188;-77
2021/04/11 08:57:39;;;;;;;9.40;1.48;;;18.40;43.40;;;;;;4874572;29;20226;-76
2021/04/11 09:00:42;;;;;;;16.52;1.50;;;18.40;43.60;;;;;;4890943;29;20160;-78
2021/04/11 09:03:27;;;;;;;12.73;1.30;;;18.40;43.50;;;;;;4872042;29;20196;-77
2021/04/11 09:06:24;;;;;;;9.35;1.20;;;18.50;43.20;;;;;;4878071;29;20191;-77
2021/04/11 09:09:29;;;;;;;6.85;1.27;;;18.50;42.90;;;;;;4893318;29;20304;-79
2021/04/11 09:11:57;;;;;;;11.02;1.48;;;18.60;42.90;;;;;;4873485;29;20198;-79
2021/04/11 09:14:55;;;;;;;7.13;1.30;;;18.60;42.80;;;;;;4877074;29;20211;-79
2021/04/11 09:17:57;;;;;;;10.60;1.38;;;18.60;43.00;;;;;;4874398;29;20597;-79
2021/04/11 09:20:56;;;;;;;8.38;1.30;;;18.50;43.30;;;;;;4871889;29;20659;-77
2021/04/11 09:23:31;;;;;;;14.05;1.60;;;18.50;43.00;;;;;;4869066;29;20180;-78
2021/04/11 09:26:28;;;;;;;7.28;1.30;;;18.50;43.00;;;;;;4884528;29;20171;-79
2021/04/11 09:28:55;;;;;;;7.28;1.08;;;18.50;43.00;;;;;;4926120;29;20193;-76
2021/04/11 09:31:40;;;;;;;5.57;1.20;;;18.60;42.90;;;;;;4942314;29;20166;-77
2021/04/11 09:34:38;;;;;;;9.63;1.20;;;18.60;42.90;;;;;;4943049;29;20577;-78
2021/04/11 09:37:29;;;;;;;6.88;1.20;;;18.60;42.80;;;;;;4908955;29;20301;-78
2021/04/11 09:40:03;;;;;;;8.30;1.10;;;18.60;43.00;;;;;;4909228;29;20258;-78
2021/04/11 09:42:46;;;;;;;5.15;1.10;;;18.60;42.90;;;;;;4906315;29;20271;-76
2021/04/11 09:45:50;;;;;;;9.23;1.02;;;18.50;43.00;;;;;;4903107;29;20249;-77
2021/04/11 09:48:48;;;;;;;6.32;1.10;;;18.60;43.00;;;;;;4918284;29;20193;-78
2021/04/11 09:51:35;;;;;;;12.02;1.52;;;18.60;42.90;;;;;;4915153;29;20269;-79
2021/04/11 09:54:12;;;;;;;5.43;1.50;;;18.70;42.80;;;;;;4917807;29;20274;-79
2021/04/11 09:57:07;;;;;;;14.40;1.65;;;18.70;42.90;;;;;;4917794;29;20748;-79
2021/04/11 10:00:00;;;;;;;12.02;1.88;;;18.60;43.10;;;;;;4861831;29;20213;-78
2021/04/11 10:03:26;;;;;;;13.75;1.25;;;18.70;43.00;;;;;;4864612;29;20161;-77
2021/04/11 10:06:01;;;;;;;13.73;1.73;;;18.70;43.40;;;;;;4790082;30;20534;-78
2021/04/11 10:08:48;;;;;;;15.10;1.65;;;18.60;43.50;;;;;;4790862;30;20248;-78
2021/04/11 10:11:35;;;;;;;15.63;1.80;;;18.70;44.10;;;;;;4790822;30;20203;-79
2021/04/11 10:14:35;;;;;;;17.08;1.70;;;18.70;43.40;;;;;;4793652;29;20190;-80
2021/04/11 10:17:39;;;;;;;16.17;1.58;;;18.70;43.40;;;;;;4792136;29;20256;-79
2021/04/11 10:20:12;;;;;;;9.00;1.50;;;18.70;43.50;;;;;;4805739;29;20691;-80
2021/04/11 10:22:45;;;;;;;23.30;2.28;;;18.70;43.40;;;;;;4808904;29;20239;-77
2021/04/11 10:25:19;;;;;;;35.35;2.80;;;18.70;43.50;;;;;;4797653;29;20171;-77
2021/04/11 10:28:11;;;;;;;28.70;2.50;;;18.70;43.30;;;;;;4812019;29;20201;-78
2021/04/11 10:30:38;;;;;;;21.25;1.90;;;18.70;43.70;;;;;;4798048;29;20241;-79
2021/04/11 10:33:19;;;;;;;23.27;2.20;;;18.60;43.80;;;;;;4796541;29;20190;-78
2021/04/11 10:35:52;;;;;;;22.98;2.55;;;18.60;44.10;;;;;;4855174;29;20178;-77
2021/04/11 10:38:44;;;;;;;15.13;1.77;;;18.70;44.00;;;;;;4940121;29;20615;-77
2021/04/11 10:41:32;;;;;;;12.20;1.80;;;18.70;44.00;;;;;;4936913;29;20155;-79
2021/04/11 10:44:17;;;;;;;12.65;1.85;;;18.70;43.50;;;;;;4940000;29;20181;-79
2021/04/11 10:47:20;;;;;;;14.07;1.83;;;18.70;43.70;;;;;;4942980;29;20252;-78
2021/04/11 10:49:52;;;;;;;17.27;1.98;;;18.70;43.70;;;;;;4942147;29;20162;-76
2021/04/11 10:52:31;;;;;;;17.13;1.65;;;18.70;43.50;;;;;;4941340;29;20158;-79
2021/04/11 10:55:17;;;;;;;15.02;1.90;;;18.80;43.80;;;;;;4944975;29;20230;-80
2021/04/11 10:58:22;;;;;;;11.18;2.22;;;18.70;43.80;;;;;;4942804;29;20273;-81
2021/04/11 11:01:15;;;;;;;16.60;1.58;;;18.70;43.50;;;;;;4948023;29;20165;-79
2021/04/11 11:04:19;;;;;;;17.55;1.83;;;18.70;43.70;;;;;;4947192;29;20162;-79
2021/04/11 11:06:48;;;;;;;13.75;1.80;;;18.70;43.90;;;;;;4944124;29;20296;-81
2021/04/11 11:09:23;;;;;;;21.77;2.00;;;18.70;44.00;;;;;;4946055;29;20503;-79
2021/04/11 11:11:58;;;;;;;15.98;1.90;;;18.60;44.20;;;;;;4946452;29;20664;-80
2021/04/11 11:15:01;;;;;;;17.38;1.70;;;18.70;44.10;;;;;;4947403;29;20492;-81
2021/04/11 11:17:36;;;;;;;17.17;2.50;;;18.70;44.20;;;;;;4947094;29;20204;-81
2021/04/11 11:20:19;;;;;;;11.88;1.77;;;18.70;44.20;;;;;;4948443;29;20172;-81
2021/04/11 11:22:56;;;;;;;11.65;1.70;;;18.70;44.20;;;;;;4946243;29;20609;-77
2021/04/11 11:25:50;;;;;;;21.10;2.10;;;18.70;44.20;;;;;;4945550;29;20158;-81
2021/04/11 11:28:38;;;;;;;16.00;1.75;;;18.70;44.00;;;;;;4944980;29;20173;-80
2021/04/11 11:31:31;;;;;;;30.63;3.65;;;18.70;44.00;;;;;;4944351;29;20253;-80
2021/04/11 11:34:15;;;;;;;18.70;2.15;;;18.70;44.30;;;;;;4941590;29;20174;-81
2021/04/11 11:37:06;;;;;;;26.80;3.08;;;18.70;44.40;;;;;;4944708;29;20215;-80
2021/04/11 11:40:05;;;;;;;30.98;2.15;;;18.70;44.40;;;;;;4949703;29;20166;-82
2021/04/11 11:42:49;;;;;;;25.13;2.60;;;18.70;44.40;;;;;;4954869;29;20178;-79
2021/04/11 11:45:25;;;;;;;26.98;2.60;;;18.80;44.20;;;;;;4950773;29;20173;-79
2021/04/11 11:48:18;;;;;;;33.92;3.35;;;18.80;44.20;;;;;;4953086;29;20241;-80
2021/04/11 11:50:56;;;;;;;21.13;2.05;;;18.80;44.40;;;;;;4949449;29;20169;-79
2021/04/11 11:53:41;;;;;;;19.80;2.30;;;18.80;44.30;;;;;;4946207;29;20264;-77
2021/04/11 11:56:30;;;;;;;30.65;2.60;;;18.80;44.40;;;;;;4949896;29;20264;-81
2021/04/11 11:59:26;;;;;;;29.33;2.50;;;18.80;44.50;;;;;;4900685;29;20185;-81
2021/04/11 12:02:39;;;;;;;34.13;3.03;;;18.70;44.30;;;;;;4931813;29;20191;-82
2021/04/11 12:05:26;;;;;;;28.92;2.60;;;18.70;44.40;;;;;;4932893;29;20163;-78
2021/04/11 12:07:58;;;;;;;29.65;2.45;;;18.70;44.70;;;;;;4915389;29;20678;-81
2021/04/11 12:10:32;;;;;;;49.95;3.10;;;18.70;44.50;;;;;;4912234;29;20174;-80
2021/04/11 12:13:17;;;;;;;52.28;4.13;;;18.70;44.70;;;;;;4926850;29;20171;-80
2021/04/11 12:15:59;;;;;;;75.68;4.97;;;18.70;44.80;;;;;;4929800;29;20234;-80
2021/04/11 12:18:36;;;;;;;54.92;4.45;;;18.60;44.70;;;;;;4927211;29;20198;-78
2021/04/11 12:21:17;;;;;;;61.33;4.78;;;18.70;44.60;;;;;;4936653;29;20258;-79
2021/04/11 12:24:26;;;;;;;50.60;3.75;;;18.70;44.60;;;;;;4915899;29;20623;-80
2021/04/11 12:27:02;;;;;;;37.97;3.28;;;18.70;44.50;;;;;;4892640;29;20176;-79
2021/04/11 12:29:31;;;;;;;34.88;3.67;;;18.70;44.70;;;;;;4873038;29;20211;-79
2021/04/11 12:31:59;;;;;;;39.50;3.47;;;18.70;44.60;;;;;;4874804;29;20165;-79
2021/04/11 12:34:38;;;;;;;48.75;3.45;;;18.70;44.70;;;;;;4873287;29;20624;-79
2021/04/11 12:37:30;;;;;;;36.90;3.38;;;18.80;44.60;;;;;;4861133;29;20206;-79
2021/04/11 12:40:21;;;;;;;57.20;4.32;;;18.70;44.50;;;;;;4889747;29;20169;-78
2021/04/11 12:42:56;;;;;;;41.10;3.38;;;18.70;44.60;;;;;;4894872;29;20304;-77
2021/04/11 12:45:42;;;;;;;45.97;3.38;;;18.70;44.70;;;;;;4881537;29;20297;-79
2021/04/11 12:48:28;;;;;;;60.30;3.88;;;18.70;44.50;;;;;;4883072;29;20187;-78
2021/04/11 12:51:00;;;;;;;40.38;4.38;;;18.70;44.50;;;;;;4881078;29;20176;-79
2021/04/11 12:54:00;;;;;;;31.27;2.95;;;18.70;44.60;;;;;;4879177;29;20192;-78
2021/04/11 12:56:26;;;;;;;39.50;3.42;;;18.70;44.50;;;;;;4897580;29;20200;-80
2021/04/11 12:59:19;;;;;;;51.88;4.18;;;18.80;44.60;;;;;;4882604;29;20223;-81
2021/04/11 13:02:17;;;;;;;38.45;3.33;;;18.80;44.00;;;;;;4945624;29;20178;-79
2021/04/11 13:04:56;;;;;;;37.03;3.20;;;18.80;44.70;;;;;;4940264;29;20277;-80
2021/04/11 13:07:56;;;;;;;40.03;3.10;;;18.80;44.70;;;;;;4949088;29;20174;-81
2021/04/11 13:11:03;;;;;;;59.47;4.07;;;18.80;44.60;;;;;;4948834;29;20177;-79
2021/04/11 13:13:58;;;;;;;45.47;3.72;;;18.80;44.60;;;;;;4945913;29;20242;-80
2021/04/11 13:16:25;;;;;;;32.58;3.30;;;18.80;44.80;;;;;;4951866;29;20213;-80
2021/04/11 13:19:02;;;;;;;45.35;3.80;;;18.80;44.80;;;;;;4951604;29;20169;-82
2021/04/11 13:22:08;;;;;;;44.85;3.55;;;18.70;44.80;;;;;;4940026;29;20185;-81
2021/04/11 13:25:00;;;;;;;36.60;4.40;;;18.70;44.80;;;;;;4951548;29;20185;-78
2021/04/11 13:27:37;;;;;;;40.60;3.67;;;18.70;44.90;;;;;;4946471;29;20201;-79
2021/04/11 13:30:30;;;;;;;45.15;4.30;;;18.70;44.90;;;;;;4935663;29;20170;-78
2021/04/11 13:33:08;;;;;;;48.03;3.60;;;18.70;45.10;;;;;;4952635;29;20206;-77
2021/04/11 13:35:59;;;;;;;72.38;5.97;;;18.80;45.20;;;;;;4951531;29;20608;-79
2021/04/11 13:38:46;;;;;;;75.43;5.35;;;18.60;44.80;;;;;;4928495;29;20189;-79
2021/04/11 13:41:25;;;;;;;74.35;5.18;;;18.60;45.00;;;;;;4932831;29;20202;-80
2021/04/11 13:44:02;;;;;;;64.13;4.70;;;18.60;45.00;;;;;;4932464;29;20186;-81
2021/04/11 13:46:44;;;;;;;59.40;4.55;;;18.50;45.10;;;;;;4931498;29;20170;-80
2021/04/11 13:49:32;;;;;;;66.78;4.45;;;18.50;45.20;;;;;;4946893;29;20166;-81
2021/04/11 13:52:32;;;;;;;85.63;5.55;;;18.50;45.00;;;;;;4949435;29;20181;-81